Time;durP1;ratioP1;P1;durP2;ratioP2;P2;SDS_P1;SDS_P2;PMS_P1;PMS_P2;Temp;Humidity;BMP_temperature;BMP_pressure;BME280_temperature;BME280_humidity;BME280_pressure;Samples;Min_cycle;Max_cycle;Signal;HPM_P1;HPM_P2
2023/11/15 00:01:21;;;;;;;16.37;8.57;;;;;;;;;;2610065;47;21029;-74
2023/11/15 00:03:47;;;;;;;15.27;8.00;;;;;;;;;;2611509;54;20545;-72
2023/11/15 00:06:13;;;;;;;18.37;7.70;;;;;;;;;;2610183;54;20416;-73
2023/11/15 00:08:39;;;;;;;15.63;6.90;;;;;;;;;;2610913;54;20974;-72
2023/11/15 00:11:05;;;;;;;11.90;6.50;;;;;;;;;;2610356;54;20446;-73
2023/11/15 00:13:33;;;;;;;11.87;7.67;;;;;;;;;;2610974;54;20446;-72
2023/11/15 00:15:59;;;;;;;21.23;7.33;;;;;;;;;;2611579;54;20441;-72
2023/11/15 00:18:26;;;;;;;12.37;6.80;;;;;;;;;;2611169;54;20541;-73
2023/11/15 00:20:52;;;;;;;15.20;6.50;;;;;;;;;;2612106;39;20847;-72
2023/11/15 00:23:18;;;;;;;14.03;7.10;;;;;;;;;;2611635;54;20448;-71
2023/11/15 00:25:45;;;;;;;17.97;5.80;;;;;;;;;;2612105;54;20583;-73
2023/11/15 00:28:13;;;;;;;11.80;5.63;;;;;;;;;;2611685;47;20489;-73
2023/11/15 00:30:39;;;;;;;11.97;6.07;;;;;;;;;;2611466;39;21191;-73
2023/11/15 00:33:07;;;;;;;14.90;6.37;;;;;;;;;;2611591;54;21080;-74
2023/11/15 00:35:33;;;;;;;13.47;6.20;;;;;;;;;;2611298;54;20468;-73
2023/11/15 00:37:59;;;;;;;7.67;6.03;;;;;;;;;;2611485;54;20397;-73
2023/11/15 00:40:25;;;;;;;12.20;5.67;;;;;;;;;;2611884;47;20462;-73
2023/11/15 00:42:54;;;;;;;7.83;3.53;;;;;;;;;;2611788;54;20406;-73
2023/11/15 00:45:23;;;;;;;10.57;4.20;;;;;;;;;;2612884;54;21019;-73
2023/11/15 00:47:49;;;;;;;13.40;4.60;;;;;;;;;;2612678;54;20522;-72
2023/11/15 00:50:15;;;;;;;8.43;3.73;;;;;;;;;;2613498;54;20407;-73
2023/11/15 00:52:41;;;;;;;12.50;4.23;;;;;;;;;;2613600;54;20962;-73
2023/11/15 00:55:07;;;;;;;8.53;3.13;;;;;;;;;;2613351;54;20429;-73
2023/11/15 00:57:34;;;;;;;10.10;4.90;;;;;;;;;;2613361;54;20673;-73
2023/11/15 01:00:00;;;;;;;9.77;4.90;;;;;;;;;;2612148;39;20820;-71
2023/11/15 01:02:29;;;;;;;17.33;4.73;;;;;;;;;;2611556;54;20446;-73
2023/11/15 01:04:55;;;;;;;9.13;4.10;;;;;;;;;;2611381;54;20436;-73
2023/11/15 01:07:21;;;;;;;8.10;4.40;;;;;;;;;;2611401;54;20414;-73
2023/11/15 01:09:47;;;;;;;14.40;3.90;;;;;;;;;;2610522;47;20415;-74
2023/11/15 01:12:13;;;;;;;13.23;4.30;;;;;;;;;;2610412;47;20534;-73
2023/11/15 01:14:39;;;;;;;12.70;3.63;;;;;;;;;;2610553;54;20424;-73
2023/11/15 01:17:06;;;;;;;10.57;4.50;;;;;;;;;;2610653;54;21113;-73
2023/11/15 01:19:32;;;;;;;13.57;4.50;;;;;;;;;;2611407;54;20412;-74
2023/11/15 01:21:58;;;;;;;11.30;3.37;;;;;;;;;;2612828;54;20423;-73
2023/11/15 01:24:25;;;;;;;11.80;5.10;;;;;;;;;;2613012;54;20957;-73
2023/11/15 01:26:52;;;;;;;8.60;5.90;;;;;;;;;;2613003;39;20712;-73
2023/11/15 01:29:18;;;;;;;22.33;6.40;;;;;;;;;;2613227;54;20461;-74
2023/11/15 01:31:44;;;;;;;9.13;5.63;;;;;;;;;;2612053;54;20438;-73
2023/11/15 01:34:12;;;;;;;8.27;4.23;;;;;;;;;;2611681;54;20392;-73
2023/11/15 01:36:38;;;;;;;9.23;5.00;;;;;;;;;;2611284;54;20969;-72
2023/11/15 01:39:04;;;;;;;14.27;6.30;;;;;;;;;;2612010;54;20410;-72
2023/11/15 01:41:30;;;;;;;12.37;6.10;;;;;;;;;;2612415;54;20422;-73
2023/11/15 01:43:56;;;;;;;11.60;6.30;;;;;;;;;;2612617;47;21142;-74
2023/11/15 01:46:22;;;;;;;15.67;7.73;;;;;;;;;;2613862;54;20407;-75
2023/11/15 01:48:49;;;;;;;14.87;6.30;;;;;;;;;;2613363;54;20541;-74
2023/11/15 01:51:15;;;;;;;11.70;6.63;;;;;;;;;;2612653;54;20415;-74
2023/11/15 01:53:41;;;;;;;13.90;7.07;;;;;;;;;;2613358;54;20423;-75
2023/11/15 01:56:08;;;;;;;12.47;7.63;;;;;;;;;;2612355;46;20451;-74
2023/11/15 01:58:34;;;;;;;22.23;10.03;;;;;;;;;;2613541;54;20415;-75
2023/11/15 02:01:00;;;;;;;18.20;8.50;;;;;;;;;;2613248;54;21396;-75
2023/11/15 02:03:27;;;;;;;19.20;9.00;;;;;;;;;;2613680;54;20403;-75
2023/11/15 02:05:53;;;;;;;17.50;7.37;;;;;;;;;;2613862;54;20414;-75
2023/11/15 02:08:20;;;;;;;19.10;8.93;;;;;;;;;;2612808;39;20810;-75
2023/11/15 02:10:46;;;;;;;19.50;9.57;;;;;;;;;;2613380;54;20450;-74
2023/11/15 02:13:28;;;;;;;21.80;11.33;;;;;;;;;;2613321;39;20806;-75
2023/11/15 02:15:56;;;;;;;18.67;8.90;;;;;;;;;;2613324;54;20962;-73
2023/11/15 02:18:23;;;;;;;26.57;10.63;;;;;;;;;;2612546;51;20434;-75
2023/11/15 02:20:49;;;;;;;18.33;9.90;;;;;;;;;;2613933;46;20494;-74
2023/11/15 02:23:15;;;;;;;25.13;8.93;;;;;;;;;;2613564;54;20459;-74
2023/11/15 02:25:42;;;;;;;19.03;10.40;;;;;;;;;;2613222;47;20466;-74
2023/11/15 02:28:09;;;;;;;17.70;9.97;;;;;;;;;;2612665;47;21033;-75
2023/11/15 02:30:35;;;;;;;20.83;9.50;;;;;;;;;;2612427;54;20423;-75
2023/11/15 02:33:01;;;;;;;19.50;12.17;;;;;;;;;;2612503;47;20428;-74
2023/11/15 02:35:27;;;;;;;27.17;12.90;;;;;;;;;;2612678;54;20457;-75
2023/11/15 02:37:53;;;;;;;25.47;11.90;;;;;;;;;;2612924;54;20419;-75
2023/11/15 02:40:19;;;;;;;14.67;9.00;;;;;;;;;;2613534;54;20431;-74
2023/11/15 02:42:45;;;;;;;6.30;4.60;;;;;;;;;;2611462;54;21164;-74
2023/11/15 02:45:12;;;;;;;20.53;11.93;;;;;;;;;;2611872;54;21033;-74
2023/11/15 02:47:38;;;;;;;12.17;6.90;;;;;;;;;;2610374;47;20437;-75
2023/11/15 02:50:04;;;;;;;12.27;7.10;;;;;;;;;;2612219;54;20410;-74
2023/11/15 02:52:30;;;;;;;15.80;9.60;;;;;;;;;;2613476;54;20402;-75
2023/11/15 02:54:58;;;;;;;33.17;9.53;;;;;;;;;;2612988;31;21035;-73
2023/11/15 02:57:24;;;;;;;20.33;9.90;;;;;;;;;;2613001;54;21129;-73
2023/11/15 02:59:50;;;;;;;18.90;8.23;;;;;;;;;;2612010;47;20543;-73
2023/11/15 03:02:18;;;;;;;13.93;10.00;;;;;;;;;;2613216;54;20430;-72
2023/11/15 03:04:45;;;;;;;19.83;11.47;;;;;;;;;;2612685;46;20444;-73
2023/11/15 03:07:12;;;;;;;14.30;8.60;;;;;;;;;;2612298;51;20434;-72
2023/11/15 03:09:38;;;;;;;16.23;8.40;;;;;;;;;;2613343;39;20474;-73
2023/11/15 03:12:04;;;;;;;20.70;10.93;;;;;;;;;;2612283;47;20539;-73
2023/11/15 03:14:30;;;;;;;14.03;8.87;;;;;;;;;;2612917;54;20984;-73
2023/11/15 03:17:05;;;;;;;19.10;9.27;;;;;;;;;;2611034;54;20972;-73
2023/11/15 03:19:31;;;;;;;15.67;9.33;;;;;;;;;;2612202;54;20961;-73
2023/11/15 03:21:57;;;;;;;19.90;8.67;;;;;;;;;;2612918;46;20442;-72
2023/11/15 03:24:23;;;;;;;12.33;6.80;;;;;;;;;;2612892;39;20900;-72
2023/11/15 03:26:50;;;;;;;19.43;10.83;;;;;;;;;;2613160;39;20812;-73
2023/11/15 03:29:16;;;;;;;21.67;10.77;;;;;;;;;;2613169;54;20395;-73
2023/11/15 03:31:42;;;;;;;21.23;10.70;;;;;;;;;;2613011;54;20414;-74
2023/11/15 03:34:08;;;;;;;24.37;10.97;;;;;;;;;;2610791;54;20450;-73
2023/11/15 03:36:34;;;;;;;19.57;9.77;;;;;;;;;;2610760;54;20404;-72
2023/11/15 03:39:00;;;;;;;13.70;8.60;;;;;;;;;;2611568;54;20432;-72
2023/11/15 03:41:26;;;;;;;28.77;10.20;;;;;;;;;;2612845;54;20447;-73
2023/11/15 03:43:52;;;;;;;15.77;7.70;;;;;;;;;;2612769;54;20458;-73
2023/11/15 03:46:18;;;;;;;17.80;8.20;;;;;;;;;;2612097;54;20459;-72
2023/11/15 03:48:44;;;;;;;16.63;8.47;;;;;;;;;;2613214;54;20419;-74
2023/11/15 03:51:11;;;;;;;17.53;8.03;;;;;;;;;;2613336;54;20416;-74
2023/11/15 03:53:37;;;;;;;13.20;6.90;;;;;;;;;;2613082;54;21215;-73
2023/11/15 03:56:03;;;;;;;8.07;3.67;;;;;;;;;;2612327;54;20430;-74
2023/11/15 03:58:29;;;;;;;15.30;8.57;;;;;;;;;;2611725;47;20475;-74
2023/11/15 04:00:59;;;;;;;12.30;6.77;;;;;;;;;;2612018;54;20429;-72
2023/11/15 04:03:25;;;;;;;15.27;7.67;;;;;;;;;;2610801;47;20514;-74
2023/11/15 04:05:51;;;;;;;8.40;6.80;;;;;;;;;;2610384;47;20442;-73
2023/11/15 04:08:18;;;;;;;13.90;5.30;;;;;;;;;;2610721;54;20410;-73
2023/11/15 04:10:44;;;;;;;13.10;7.87;;;;;;;;;;2611281;54;20411;-74
2023/11/15 04:13:10;;;;;;;15.30;7.83;;;;;;;;;;2613078;54;20435;-73
2023/11/15 04:15:36;;;;;;;9.90;5.93;;;;;;;;;;2612019;47;20407;-72
2023/11/15 04:18:03;;;;;;;16.47;8.27;;;;;;;;;;2612741;54;20407;-73
2023/11/15 04:20:30;;;;;;;18.87;9.00;;;;;;;;;;2611920;54;20469;-73
2023/11/15 04:22:57;;;;;;;27.27;9.40;;;;;;;;;;2612892;39;20744;-72
2023/11/15 04:25:24;;;;;;;14.93;8.73;;;;;;;;;;2611315;47;20419;-73
2023/11/15 04:27:51;;;;;;;18.80;8.37;;;;;;;;;;2612961;39;20928;-73
2023/11/15 04:30:17;;;;;;;11.97;6.10;;;;;;;;;;2612496;54;20431;-72
2023/11/15 04:32:45;;;;;;;17.20;10.73;;;;;;;;;;2612853;54;20443;-73
2023/11/15 04:35:12;;;;;;;16.70;8.73;;;;;;;;;;2612964;54;20413;-73
2023/11/15 04:37:38;;;;;;;17.70;9.30;;;;;;;;;;2612655;54;20391;-74
2023/11/15 04:40:06;;;;;;;24.40;9.80;;;;;;;;;;2611851;54;20396;-73
2023/11/15 04:42:36;;;;;;;8.97;5.53;;;;;;;;;;2611853;54;20988;-73
2023/11/15 04:45:04;;;;;;;17.23;10.00;;;;;;;;;;2612715;47;20462;-74
2023/11/15 04:47:30;;;;;;;11.17;7.43;;;;;;;;;;2611538;47;20878;-74
2023/11/15 04:49:56;;;;;;;13.20;9.30;;;;;;;;;;2611781;47;20415;-72
2023/11/15 04:52:22;;;;;;;12.17;7.80;;;;;;;;;;2611863;47;20427;-74
2023/11/15 04:54:48;;;;;;;14.73;9.57;;;;;;;;;;2612681;54;20925;-74
2023/11/15 04:57:23;;;;;;;13.93;7.90;;;;;;;;;;2612271;54;20459;-74
2023/11/15 04:59:51;;;;;;;18.03;9.23;;;;;;;;;;2613475;54;20469;-72
2023/11/15 05:02:17;;;;;;;11.80;7.23;;;;;;;;;;2613720;46;20423;-73
2023/11/15 05:04:44;;;;;;;21.03;10.13;;;;;;;;;;2613106;47;20404;-74
2023/11/15 05:07:13;;;;;;;16.37;8.53;;;;;;;;;;2612894;54;20419;-73
2023/11/15 05:09:39;;;;;;;17.30;8.57;;;;;;;;;;2613308;54;20423;-73
2023/11/15 05:12:05;;;;;;;15.23;8.43;;;;;;;;;;2613054;47;20408;-73
2023/11/15 05:14:31;;;;;;;16.00;7.33;;;;;;;;;;2612239;54;20984;-72
2023/11/15 05:16:58;;;;;;;25.30;9.50;;;;;;;;;;2612180;54;20440;-73
2023/11/15 05:19:24;;;;;;;29.33;10.43;;;;;;;;;;2611946;39;20839;-72
2023/11/15 05:21:50;;;;;;;17.70;9.57;;;;;;;;;;2611178;54;20462;-72
2023/11/15 05:24:17;;;;;;;15.43;9.30;;;;;;;;;;2612356;54;20415;-73
2023/11/15 05:26:43;;;;;;;19.90;10.47;;;;;;;;;;2613583;54;20407;-74
2023/11/15 05:29:09;;;;;;;21.40;9.60;;;;;;;;;;2613338;54;20943;-74
2023/11/15 05:31:35;;;;;;;22.17;9.30;;;;;;;;;;2611973;54;20434;-72
2023/11/15 05:34:01;;;;;;;14.93;7.83;;;;;;;;;;2611726;54;20407;-74
2023/11/15 05:36:27;;;;;;;23.77;8.37;;;;;;;;;;2611136;54;20407;-75
2023/11/15 05:38:53;;;;;;;11.57;7.23;;;;;;;;;;2612464;54;20435;-75
2023/11/15 05:41:19;;;;;;;25.53;9.37;;;;;;;;;;2613121;54;20976;-75
2023/11/15 05:43:45;;;;;;;12.67;8.07;;;;;;;;;;2613520;54;20434;-74
2023/11/15 05:46:11;;;;;;;13.07;6.97;;;;;;;;;;2612934;54;20482;-74
2023/11/15 05:48:37;;;;;;;8.63;4.90;;;;;;;;;;2612521;54;20398;-74
2023/11/15 05:51:06;;;;;;;18.20;6.70;;;;;;;;;;2611970;47;20422;-75
2023/11/15 05:53:32;;;;;;;20.50;8.37;;;;;;;;;;2612570;47;20411;-74
2023/11/15 05:55:59;;;;;;;12.70;8.00;;;;;;;;;;2612701;54;20515;-74
2023/11/15 05:58:27;;;;;;;22.70;7.20;;;;;;;;;;2612736;54;20409;-73
2023/11/15 06:00:53;;;;;;;7.83;4.47;;;;;;;;;;2612349;51;20502;-75
2023/11/15 06:03:19;;;;;;;12.20;7.77;;;;;;;;;;2613563;47;20424;-75
2023/11/15 06:05:47;;;;;;;13.77;7.03;;;;;;;;;;2612213;54;20403;-75
2023/11/15 06:08:13;;;;;;;17.93;7.80;;;;;;;;;;2611969;54;20419;-75
2023/11/15 06:10:39;;;;;;;20.33;9.00;;;;;;;;;;2612345;47;20456;-75
2023/11/15 06:13:08;;;;;;;14.73;6.47;;;;;;;;;;2613412;39;21099;-76
2023/11/15 06:15:34;;;;;;;11.33;6.73;;;;;;;;;;2613172;54;20414;-75
2023/11/15 06:18:01;;;;;;;21.53;8.87;;;;;;;;;;2612667;54;20432;-75
2023/11/15 06:20:29;;;;;;;15.50;7.60;;;;;;;;;;2612637;54;20542;-75
2023/11/15 06:22:56;;;;;;;17.93;7.97;;;;;;;;;;2611241;47;20406;-75
2023/11/15 06:25:22;;;;;;;12.57;6.67;;;;;;;;;;2613376;54;20538;-73
2023/11/15 06:27:49;;;;;;;15.23;7.53;;;;;;;;;;2611687;47;20534;-76
2023/11/15 06:30:17;;;;;;;18.67;6.77;;;;;;;;;;2612397;54;20416;-76
2023/11/15 06:32:44;;;;;;;14.20;6.40;;;;;;;;;;2612510;47;20446;-73
2023/11/15 06:35:10;;;;;;;10.90;6.80;;;;;;;;;;2613241;54;20402;-74
2023/11/15 06:37:36;;;;;;;16.93;5.90;;;;;;;;;;2612348;54;20418;-73
2023/11/15 06:40:07;;;;;;;12.13;6.80;;;;;;;;;;2613154;54;20434;-73
2023/11/15 06:42:36;;;;;;;15.30;7.97;;;;;;;;;;2607791;54;20423;-74
2023/11/15 06:45:04;;;;;;;20.73;7.90;;;;;;;;;;2610190;54;21381;-74
2023/11/15 06:47:30;;;;;;;15.63;6.10;;;;;;;;;;2611249;54;20568;-73
2023/11/15 06:49:56;;;;;;;21.97;7.23;;;;;;;;;;2611491;54;20402;-73
2023/11/15 06:52:22;;;;;;;10.90;6.20;;;;;;;;;;2611330;54;21042;-74
2023/11/15 06:54:49;;;;;;;11.73;6.00;;;;;;;;;;2611339;47;20419;-74
2023/11/15 06:57:18;;;;;;;14.83;6.30;;;;;;;;;;2610862;54;20483;-73
2023/11/15 06:59:44;;;;;;;12.00;5.27;;;;;;;;;;2611710;47;20505;-75
2023/11/15 07:02:11;;;;;;;20.10;5.73;;;;;;;;;;2612145;54;20948;-73
2023/11/15 07:04:37;;;;;;;12.63;6.87;;;;;;;;;;2611529;54;20435;-74
2023/11/15 07:07:04;;;;;;;16.70;4.50;;;;;;;;;;2612259;54;20845;-74
2023/11/15 07:09:31;;;;;;;14.63;7.50;;;;;;;;;;2612783;54;20417;-73
2023/11/15 07:11:57;;;;;;;17.00;6.17;;;;;;;;;;2612470;47;20514;-74
2023/11/15 07:14:28;;;;;;;13.07;6.90;;;;;;;;;;2612322;54;20422;-72
2023/11/15 07:16:58;;;;;;;17.30;5.63;;;;;;;;;;2612103;54;20434;-73
2023/11/15 07:19:24;;;;;;;14.10;6.77;;;;;;;;;;2612747;54;20980;-73
2023/11/15 07:21:52;;;;;;;13.90;4.90;;;;;;;;;;2613065;54;20597;-73
2023/11/15 07:24:19;;;;;;;8.00;4.40;;;;;;;;;;2612910;54;20510;-74
2023/11/15 07:26:45;;;;;;;8.57;5.40;;;;;;;;;;2612986;54;20482;-73
2023/11/15 07:29:13;;;;;;;9.40;5.00;;;;;;;;;;2613011;39;20830;-73
2023/11/15 07:31:43;;;;;;;12.93;5.53;;;;;;;;;;2612892;54;20439;-73
2023/11/15 07:34:10;;;;;;;25.33;6.43;;;;;;;;;;2611944;54;20446;-74
2023/11/15 07:36:36;;;;;;;19.83;6.47;;;;;;;;;;2612347;54;20420;-74
2023/11/15 07:39:04;;;;;;;12.90;5.40;;;;;;;;;;2613287;54;20438;-73
2023/11/15 07:41:31;;;;;;;26.53;6.40;;;;;;;;;;2613777;54;20422;-75
2023/11/15 07:43:58;;;;;;;15.03;4.80;;;;;;;;;;2610155;46;20566;-74
2023/11/15 07:46:24;;;;;;;18.17;8.53;;;;;;;;;;2612801;54;20474;-75
2023/11/15 07:48:51;;;;;;;13.20;7.50;;;;;;;;;;2612442;54;20574;-74
2023/11/15 07:51:18;;;;;;;17.67;7.17;;;;;;;;;;2612075;54;20444;-74
2023/11/15 07:53:44;;;;;;;12.63;4.80;;;;;;;;;;2612392;54;20432;-75
2023/11/15 07:56:10;;;;;;;11.50;6.30;;;;;;;;;;2613217;54;20416;-74
2023/11/15 07:58:36;;;;;;;13.77;8.43;;;;;;;;;;2613036;54;21058;-76
2023/11/15 08:01:02;;;;;;;12.63;6.10;;;;;;;;;;2612747;54;21037;-75
2023/11/15 08:03:28;;;;;;;34.00;8.00;;;;;;;;;;2613329;54;20413;-75
2023/11/15 08:05:58;;;;;;;12.17;6.30;;;;;;;;;;2612547;54;20406;-75
2023/11/15 08:08:24;;;;;;;14.37;5.90;;;;;;;;;;2612211;39;20834;-76
2023/11/15 08:10:50;;;;;;;17.13;7.43;;;;;;;;;;2612489;54;20423;-75
2023/11/15 08:13:22;;;;;;;18.43;7.10;;;;;;;;;;2611565;46;20473;-75
2023/11/15 08:15:48;;;;;;;23.27;7.20;;;;;;;;;;2612127;31;20900;-75
2023/11/15 08:18:16;;;;;;;18.83;8.30;;;;;;;;;;2611883;46;20458;-75
2023/11/15 08:20:45;;;;;;;13.97;7.10;;;;;;;;;;2612631;39;20888;-75
2023/11/15 08:23:12;;;;;;;15.03;6.80;;;;;;;;;;2612745;54;20419;-75
2023/11/15 08:25:45;;;;;;;19.43;6.93;;;;;;;;;;2612016;54;20970;-75
2023/11/15 08:28:11;;;;;;;22.17;6.73;;;;;;;;;;2613158;39;21316;-76
2023/11/15 08:30:38;;;;;;;8.50;5.80;;;;;;;;;;2613660;54;20430;-76
2023/11/15 08:33:05;;;;;;;15.43;6.93;;;;;;;;;;2613585;54;20451;-75
2023/11/15 08:35:32;;;;;;;24.83;8.50;;;;;;;;;;2613758;39;20769;-75
2023/11/15 08:37:58;;;;;;;12.73;7.23;;;;;;;;;;2613243;54;20435;-75
2023/11/15 08:40:25;;;;;;;10.80;5.37;;;;;;;;;;2612761;46;20466;-75
2023/11/15 08:42:51;;;;;;;18.13;5.60;;;;;;;;;;2612641;54;20971;-75
2023/11/15 08:45:20;;;;;;;11.40;8.10;;;;;;;;;;2613508;54;21116;-76
2023/11/15 08:47:46;;;;;;;11.90;6.20;;;;;;;;;;2612810;46;20427;-74
2023/11/15 08:50:14;;;;;;;11.27;5.50;;;;;;;;;;2613439;54;20437;-74
2023/11/15 08:52:40;;;;;;;15.37;6.90;;;;;;;;;;2612513;54;20461;-74
2023/11/15 08:55:08;;;;;;;12.47;5.70;;;;;;;;;;2611730;54;20504;-73
2023/11/15 08:57:35;;;;;;;6.87;4.27;;;;;;;;;;2612697;54;20423;-79
2023/11/15 09:00:01;;;;;;;8.57;3.90;;;;;;;;;;2612406;54;20437;-81
2023/11/15 09:02:27;;;;;;;15.73;4.87;;;;;;;;;;2611033;54;20408;-75
2023/11/15 09:04:54;;;;;;;10.20;5.30;;;;;;;;;;2611730;54;21056;-75
2023/11/15 09:07:20;;;;;;;9.93;5.57;;;;;;;;;;2611704;54;20430;-76
2023/11/15 09:09:46;;;;;;;11.70;5.90;;;;;;;;;;2610885;46;21023;-76
2023/11/15 09:12:15;;;;;;;11.93;4.67;;;;;;;;;;2612225;39;20857;-76
2023/11/15 09:14:41;;;;;;;11.37;5.50;;;;;;;;;;2612107;39;21140;-76
2023/11/15 09:17:16;;;;;;;4.33;3.07;;;;;;;;;;2611730;54;20434;-76
2023/11/15 09:19:46;;;;;;;11.83;6.30;;;;;;;;;;2611311;47;20463;-76
2023/11/15 09:22:13;;;;;;;11.70;6.50;;;;;;;;;;2612046;54;20399;-76
2023/11/15 09:24:39;;;;;;;16.97;6.90;;;;;;;;;;2611820;46;20419;-76
2023/11/15 09:27:06;;;;;;;11.93;7.70;;;;;;;;;;2611519;54;20427;-76
2023/11/15 09:29:33;;;;;;;14.93;5.30;;;;;;;;;;2611743;54;20931;-77
2023/11/15 09:32:00;;;;;;;12.93;6.10;;;;;;;;;;2611881;54;20430;-76
2023/11/15 09:34:26;;;;;;;16.57;6.53;;;;;;;;;;2611083;54;20438;-76
2023/11/15 09:36:52;;;;;;;14.70;5.40;;;;;;;;;;2611262;54;20435;-76
2023/11/15 09:39:18;;;;;;;10.33;4.80;;;;;;;;;;2611689;54;20458;-76
2023/11/15 09:41:53;;;;;;;9.57;5.03;;;;;;;;;;2611003;54;20478;-76
2023/11/15 09:44:20;;;;;;;8.57;4.37;;;;;;;;;;2611518;39;20809;-75
2023/11/15 09:46:48;;;;;;;17.10;6.00;;;;;;;;;;2611120;54;21004;-75
2023/11/15 09:49:15;;;;;;;27.43;4.90;;;;;;;;;;2610294;47;20459;-74
2023/11/15 09:51:41;;;;;;;3.67;1.73;;;;;;;;;;2610927;54;20418;-73
2023/11/15 09:54:07;;;;;;;5.50;2.43;;;;;;;;;;2611180;54;20419;-73
2023/11/15 09:56:34;;;;;;;9.03;3.10;;;;;;;;;;2611968;54;20388;-74
2023/11/15 09:59:00;;;;;;;7.73;3.53;;;;;;;;;;2610923;46;20439;-76
2023/11/15 10:01:26;;;;;;;6.43;4.13;;;;;;;;;;2610611;54;20419;-74
2023/11/15 10:03:53;;;;;;;11.37;4.60;;;;;;;;;;2610286;54;20428;-75
2023/11/15 10:06:19;;;;;;;13.90;5.80;;;;;;;;;;2610133;54;20411;-74
2023/11/15 10:08:53;;;;;;;10.77;4.77;;;;;;;;;;2610638;54;20985;-74
2023/11/15 10:11:20;;;;;;;17.27;7.27;;;;;;;;;;2611544;54;20956;-75
2023/11/15 10:13:51;;;;;;;18.77;7.03;;;;;;;;;;2610508;54;20439;-75
2023/11/15 10:16:22;;;;;;;13.47;7.07;;;;;;;;;;2610956;54;20951;-74
2023/11/15 10:18:48;;;;;;;12.90;6.83;;;;;;;;;;2610397;47;21116;-73
2023/11/15 10:21:14;;;;;;;13.70;6.33;;;;;;;;;;2609425;54;21466;-74
2023/11/15 10:23:40;;;;;;;26.43;8.07;;;;;;;;;;2611352;54;20395;-73
2023/11/15 10:26:09;;;;;;;9.77;7.00;;;;;;;;;;2610129;54;20965;-74
2023/11/15 10:28:39;;;;;;;16.83;7.10;;;;;;;;;;2611066;54;20424;-74
2023/11/15 10:31:13;;;;;;;10.60;6.93;;;;;;;;;;2610862;54;20434;-74
2023/11/15 10:33:43;;;;;;;21.27;7.57;;;;;;;;;;2609272;47;20450;-74
2023/11/15 10:36:19;;;;;;;11.80;6.00;;;;;;;;;;2611508;39;21166;-73
2023/11/15 10:38:50;;;;;;;10.83;6.37;;;;;;;;;;2611047;54;20454;-74
2023/11/15 10:41:17;;;;;;;9.60;6.17;;;;;;;;;;2610997;54;20496;-75
2023/11/15 10:43:53;;;;;;;6.70;4.47;;;;;;;;;;2611265;39;20914;-75
2023/11/15 10:46:29;;;;;;;8.37;6.83;;;;;;;;;;2609985;47;20441;-74
2023/11/15 10:48:58;;;;;;;6.43;3.60;;;;;;;;;;2611821;54;20415;-75
2023/11/15 10:51:29;;;;;;;10.37;6.07;;;;;;;;;;2611961;39;20488;-76
2023/11/15 10:53:56;;;;;;;7.60;5.10;;;;;;;;;;2612781;39;20844;-76
2023/11/15 10:56:23;;;;;;;9.57;5.17;;;;;;;;;;2610653;39;20715;-77
2023/11/15 10:58:52;;;;;;;16.80;4.63;;;;;;;;;;2610626;47;21142;-75
2023/11/15 11:01:19;;;;;;;17.77;7.00;;;;;;;;;;2611156;54;20965;-76
2023/11/15 11:03:54;;;;;;;15.13;5.40;;;;;;;;;;2612594;54;20403;-76
2023/11/15 11:06:39;;;;;;;13.90;6.63;;;;;;;;;;2610866;47;20531;-75
2023/11/15 11:09:12;;;;;;;17.67;5.37;;;;;;;;;;2611157;46;20936;-75
2023/11/15 11:11:45;;;;;;;7.33;4.50;;;;;;;;;;2611238;54;20443;-75
2023/11/15 11:14:16;;;;;;;11.90;4.73;;;;;;;;;;2611229;54;20907;-74
2023/11/15 11:16:44;;;;;;;11.83;5.20;;;;;;;;;;2608060;47;20423;-75
2023/11/15 11:19:17;;;;;;;6.13;3.87;;;;;;;;;;2611242;47;20411;-74
2023/11/15 11:22:01;;;;;;;11.37;5.00;;;;;;;;;;2611866;54;20477;-75
2023/11/15 11:24:31;;;;;;;18.80;5.80;;;;;;;;;;2610844;54;20969;-75
2023/11/15 11:27:27;;;;;;;14.23;5.13;;;;;;;;;;2610408;47;20518;-75
2023/11/15 11:29:56;;;;;;;14.77;4.97;;;;;;;;;;2610948;54;20422;-75
2023/11/15 11:32:32;;;;;;;12.17;5.13;;;;;;;;;;2611392;54;20494;-74
2023/11/15 11:35:01;;;;;;;8.00;4.50;;;;;;;;;;2610884;54;20426;-75
2023/11/15 11:37:50;;;;;;;6.00;4.20;;;;;;;;;;2610503;54;20422;-75
2023/11/15 11:40:20;;;;;;;11.07;4.23;;;;;;;;;;2610436;47;20448;-76
2023/11/15 11:42:48;;;;;;;9.30;3.40;;;;;;;;;;2611232;54;20423;-76
2023/11/15 11:45:23;;;;;;;11.60;5.63;;;;;;;;;;2611528;54;20415;-76
2023/11/15 11:47:49;;;;;;;13.70;4.80;;;;;;;;;;2610600;51;20426;-76
2023/11/15 11:50:23;;;;;;;5.47;3.30;;;;;;;;;;2611150;54;20455;-75
2023/11/15 11:52:55;;;;;;;8.40;4.23;;;;;;;;;;2610743;54;20428;-76
2023/11/15 11:55:22;;;;;;;16.27;5.00;;;;;;;;;;2611061;54;20417;-76
2023/11/15 11:57:49;;;;;;;10.37;4.60;;;;;;;;;;2610987;46;20439;-77
2023/11/15 12:00:15;;;;;;;7.17;3.80;;;;;;;;;;2611741;54;20400;-75
2023/11/15 12:02:45;;;;;;;12.27;4.33;;;;;;;;;;2611021;47;20442;-76
2023/11/15 12:05:12;;;;;;;12.30;3.63;;;;;;;;;;2609599;54;20412;-76
2023/11/15 12:07:45;;;;;;;9.03;5.03;;;;;;;;;;2611171;39;21161;-76
2023/11/15 12:10:13;;;;;;;9.90;3.93;;;;;;;;;;2610805;47;20419;-77
2023/11/15 12:12:40;;;;;;;11.00;4.70;;;;;;;;;;2611793;54;20420;-76
2023/11/15 12:15:13;;;;;;;9.83;5.17;;;;;;;;;;2610853;54;21199;-77
2023/11/15 12:17:39;;;;;;;9.13;4.27;;;;;;;;;;2610032;47;20419;-74
2023/11/15 12:20:08;;;;;;;6.27;2.90;;;;;;;;;;2611829;39;20890;-76
2023/11/15 12:22:35;;;;;;;6.97;3.97;;;;;;;;;;2611521;54;20395;-76
2023/11/15 12:25:02;;;;;;;7.70;4.40;;;;;;;;;;2612142;39;20830;-76
2023/11/15 12:27:28;;;;;;;13.13;6.20;;;;;;;;;;2611946;54;20428;-78
2023/11/15 12:29:54;;;;;;;17.23;6.37;;;;;;;;;;2611103;47;20441;-79
2023/11/15 12:32:20;;;;;;;4.77;3.23;;;;;;;;;;2612405;54;20499;-79
2023/11/15 12:34:47;;;;;;;8.73;3.83;;;;;;;;;;2610917;47;20423;-77
2023/11/15 12:37:13;;;;;;;5.13;3.33;;;;;;;;;;2611954;54;20415;-78
2023/11/15 12:39:39;;;;;;;14.40;6.57;;;;;;;;;;2610509;54;20945;-77
2023/11/15 12:42:05;;;;;;;7.40;3.87;;;;;;;;;;2611580;54;20418;-77
2023/11/15 12:44:47;;;;;;;6.27;3.77;;;;;;;;;;2611984;54;20990;-78
2023/11/15 12:47:13;;;;;;;6.73;3.37;;;;;;;;;;2612414;54;20431;-79
2023/11/15 12:49:39;;;;;;;7.13;3.70;;;;;;;;;;2612339;54;22426;-77
2023/11/15 12:52:07;;;;;;;10.67;3.57;;;;;;;;;;2611501;54;20428;-78
2023/11/15 12:54:35;;;;;;;5.00;2.97;;;;;;;;;;2613667;54;21339;-77
2023/11/15 12:57:12;;;;;;;9.70;4.67;;;;;;;;;;2613664;39;20865;-78
2023/11/15 12:59:38;;;;;;;12.80;4.43;;;;;;;;;;2613675;54;21057;-77
2023/11/15 13:02:05;;;;;;;9.67;4.47;;;;;;;;;;2612779;54;20420;-76
2023/11/15 13:04:57;;;;;;;6.00;4.13;;;;;;;;;;2613481;39;20502;-77
2023/11/15 13:07:23;;;;;;;7.10;4.03;;;;;;;;;;2611891;39;20788;-76
2023/11/15 13:09:49;;;;;;;4.23;2.57;;;;;;;;;;2611601;47;20423;-76
2023/11/15 13:12:25;;;;;;;13.43;4.40;;;;;;;;;;2610843;47;20427;-76
2023/11/15 13:14:54;;;;;;;10.63;4.27;;;;;;;;;;2610651;54;20423;-78
2023/11/15 13:17:20;;;;;;;6.97;3.60;;;;;;;;;;2610937;39;20747;-79
2023/11/15 13:19:46;;;;;;;10.20;5.80;;;;;;;;;;2612225;54;20454;-77
2023/11/15 13:22:12;;;;;;;9.60;5.70;;;;;;;;;;2612072;54;20427;-76
2023/11/15 13:24:39;;;;;;;10.80;5.57;;;;;;;;;;2610720;47;20468;-77
2023/11/15 13:27:05;;;;;;;7.23;4.20;;;;;;;;;;2611535;51;20415;-79
2023/11/15 13:29:31;;;;;;;4.90;4.03;;;;;;;;;;2611926;54;21012;-77
2023/11/15 13:31:59;;;;;;;8.40;4.27;;;;;;;;;;2614054;39;20857;-78
2023/11/15 13:34:25;;;;;;;6.00;3.83;;;;;;;;;;2612763;47;20427;-77
2023/11/15 13:36:51;;;;;;;4.03;3.63;;;;;;;;;;2612997;54;20501;-75
2023/11/15 13:39:18;;;;;;;7.53;3.70;;;;;;;;;;2612342;49;20423;-76
2023/11/15 13:41:44;;;;;;;5.50;4.40;;;;;;;;;;2610556;54;21005;-76
2023/11/15 13:44:10;;;;;;;5.13;3.90;;;;;;;;;;2611842;54;20423;-75
2023/11/15 13:46:37;;;;;;;12.77;4.77;;;;;;;;;;2611115;54;20419;-76
2023/11/15 13:49:04;;;;;;;14.03;4.87;;;;;;;;;;2611990;46;20423;-76
2023/11/15 13:51:31;;;;;;;6.53;4.20;;;;;;;;;;2611139;54;20511;-76
2023/11/15 13:53:57;;;;;;;5.83;4.80;;;;;;;;;;2611134;54;20408;-78
2023/11/15 13:56:23;;;;;;;6.67;3.63;;;;;;;;;;2610697;54;20458;-76
2023/11/15 13:58:49;;;;;;;7.87;4.13;;;;;;;;;;2611145;54;20428;-75
2023/11/15 14:01:15;;;;;;;8.80;5.00;;;;;;;;;;2610374;54;20434;-75
2023/11/15 14:03:43;;;;;;;7.03;4.17;;;;;;;;;;2610278;54;20423;-76
2023/11/15 14:06:10;;;;;;;8.30;4.17;;;;;;;;;;2610492;51;20418;-76
2023/11/15 14:08:37;;;;;;;7.93;4.23;;;;;;;;;;2611787;54;20431;-76
2023/11/15 14:11:06;;;;;;;6.80;4.50;;;;;;;;;;2610654;47;20451;-76
2023/11/15 14:13:33;;;;;;;12.33;4.70;;;;;;;;;;2611179;54;20436;-75
2023/11/15 14:16:00;;;;;;;4.20;3.77;;;;;;;;;;2611621;54;20427;-76
2023/11/15 14:18:27;;;;;;;6.20;4.30;;;;;;;;;;2610799;31;20938;-77
2023/11/15 14:20:55;;;;;;;12.63;4.27;;;;;;;;;;2609350;54;20503;-76
2023/11/15 14:23:22;;;;;;;5.47;4.60;;;;;;;;;;2610180;54;20424;-76
2023/11/15 14:25:49;;;;;;;9.53;4.90;;;;;;;;;;2608148;54;20400;-76
2023/11/15 14:28:15;;;;;;;5.17;4.10;;;;;;;;;;2609744;47;20535;-76
2023/11/15 14:30:43;;;;;;;5.20;3.63;;;;;;;;;;2610942;54;20420;-76
2023/11/15 14:33:11;;;;;;;8.17;4.17;;;;;;;;;;2609285;47;20451;-76
2023/11/15 14:35:41;;;;;;;6.23;3.63;;;;;;;;;;2609593;47;20532;-75